sensor_id;sensor_type;location;lat;lon;timestamp;P1;durP1;ratioP1;P2;durP2;ratioP2
57107;SDS011;42987;52.916;6.542;2023-01-28T00:00:43;14.25;;;13.02;;
57107;SDS011;42987;52.916;6.542;2023-01-28T00:03:09;13.48;;;12.38;;
57107;SDS011;42987;52.916;6.542;2023-01-28T00:05:38;14.70;;;13.40;;
57107;SDS011;42987;52.916;6.542;2023-01-28T00:08:04;14.85;;;13.60;;
57107;SDS011;42987;52.916;6.542;2023-01-28T00:10:30;14.23;;;13.13;;
57107;SDS011;42987;52.916;6.542;2023-01-28T00:12:55;13.35;;;12.25;;
57107;SDS011;42987;52.916;6.542;2023-01-28T00:15:21;15.93;;;14.63;;
57107;SDS011;42987;52.916;6.542;2023-01-28T00:17:49;15.50;;;14.10;;
57107;SDS011;42987;52.916;6.542;2023-01-28T00:20:15;15.00;;;13.80;;
57107;SDS011;42987;52.916;6.542;2023-01-28T00:22:45;16.73;;;15.33;;
57107;SDS011;42987;52.916;6.542;2023-01-28T00:25:12;17.47;;;16.07;;
57107;SDS011;42987;52.916;6.542;2023-01-28T00:27:38;17.45;;;16.05;;
57107;SDS011;42987;52.916;6.542;2023-01-28T00:30:07;17.47;;;16.07;;
57107;SDS011;42987;52.916;6.542;2023-01-28T00:32:33;21.23;;;19.33;;
57107;SDS011;42987;52.916;6.542;2023-01-28T00:34:59;23.87;;;21.53;;
57107;SDS011;42987;52.916;6.542;2023-01-28T00:37:25;22.03;;;20.03;;
57107;SDS011;42987;52.916;6.542;2023-01-28T00:39:51;18.43;;;16.80;;
57107;SDS011;42987;52.916;6.542;2023-01-28T00:42:16;18.20;;;16.70;;
57107;SDS011;42987;52.916;6.542;2023-01-28T00:44:42;17.98;;;16.50;;
57107;SDS011;42987;52.916;6.542;2023-01-28T00:47:08;18.30;;;16.80;;
57107;SDS011;42987;52.916;6.542;2023-01-28T00:49:35;18.83;;;17.30;;
57107;SDS011;42987;52.916;6.542;2023-01-28T00:52:00;18.50;;;16.95;;
57107;SDS011;42987;52.916;6.542;2023-01-28T00:54:27;18.30;;;16.80;;
57107;SDS011;42987;52.916;6.542;2023-01-28T00:56:52;17.77;;;16.37;;
57107;SDS011;42987;52.916;6.542;2023-01-28T00:59:18;18.30;;;16.90;;
57107;SDS011;42987;52.916;6.542;2023-01-28T01:01:44;17.67;;;16.27;;
57107;SDS011;42987;52.916;6.542;2023-01-28T01:04:10;17.80;;;16.40;;
57107;SDS011;42987;52.916;6.542;2023-01-28T01:06:38;17.63;;;16.23;;
57107;SDS011;42987;52.916;6.542;2023-01-28T01:09:09;17.20;;;15.87;;
57107;SDS011;42987;52.916;6.542;2023-01-28T01:11:35;17.20;;;15.80;;
57107;SDS011;42987;52.916;6.542;2023-01-28T01:14:01;17.03;;;15.63;;
57107;SDS011;42987;52.916;6.542;2023-01-28T01:16:29;17.30;;;15.90;;
57107;SDS011;42987;52.916;6.542;2023-01-28T01:19:00;17.52;;;16.10;;
57107;SDS011;42987;52.916;6.542;2023-01-28T01:21:29;17.07;;;15.60;;
57107;SDS011;42987;52.916;6.542;2023-01-28T01:23:55;16.87;;;15.47;;
57107;SDS011;42987;52.916;6.542;2023-01-28T01:26:21;17.60;;;16.10;;
57107;SDS011;42987;52.916;6.542;2023-01-28T01:28:49;16.87;;;15.27;;
57107;SDS011;42987;52.916;6.542;2023-01-28T01:31:16;15.80;;;14.53;;
57107;SDS011;42987;52.916;6.542;2023-01-28T01:33:44;16.73;;;15.40;;
57107;SDS011;42987;52.916;6.542;2023-01-28T01:36:12;15.37;;;14.17;;
57107;SDS011;42987;52.916;6.542;2023-01-28T01:38:39;15.68;;;14.48;;
57107;SDS011;42987;52.916;6.542;2023-01-28T01:41:07;14.90;;;13.73;;
57107;SDS011;42987;52.916;6.542;2023-01-28T01:43:47;16.50;;;15.20;;
57107;SDS011;42987;52.916;6.542;2023-01-28T01:46:16;15.37;;;14.20;;
57107;SDS011;42987;52.916;6.542;2023-01-28T01:48:56;15.30;;;14.10;;
57107;SDS011;42987;52.916;6.542;2023-01-28T01:51:47;15.90;;;14.67;;
57107;SDS011;42987;52.916;6.542;2023-01-28T01:54:16;15.43;;;14.23;;
57107;SDS011;42987;52.916;6.542;2023-01-28T01:56:46;15.53;;;14.27;;
57107;SDS011;42987;52.916;6.542;2023-01-28T01:59:14;14.03;;;13.03;;
57107;SDS011;42987;52.916;6.542;2023-01-28T02:01:46;13.80;;;12.77;;
57107;SDS011;42987;52.916;6.542;2023-01-28T02:04:20;14.00;;;12.93;;
57107;SDS011;42987;52.916;6.542;2023-01-28T02:06:49;15.07;;;13.97;;
57107;SDS011;42987;52.916;6.542;2023-01-28T02:09:35;14.87;;;13.57;;
57107;SDS011;42987;52.916;6.542;2023-01-28T02:12:12;14.73;;;13.52;;
57107;SDS011;42987;52.916;6.542;2023-01-28T02:14:47;15.50;;;14.30;;
57107;SDS011;42987;52.916;6.542;2023-01-28T02:17:23;14.97;;;13.77;;
57107;SDS011;42987;52.916;6.542;2023-01-28T02:19:53;15.90;;;14.70;;
57107;SDS011;42987;52.916;6.542;2023-01-28T02:30:41;14.53;;;13.43;;
57107;SDS011;42987;52.916;6.542;2023-01-28T02:33:17;14.57;;;13.40;;
57107;SDS011;42987;52.916;6.542;2023-01-28T02:35:52;14.23;;;13.13;;
57107;SDS011;42987;52.916;6.542;2023-01-28T02:38:26;15.17;;;13.87;;
57107;SDS011;42987;52.916;6.542;2023-01-28T02:41:00;14.97;;;13.77;;
57107;SDS011;42987;52.916;6.542;2023-01-28T02:43:37;14.77;;;13.50;;
57107;SDS011;42987;52.916;6.542;2023-01-28T02:46:53;13.77;;;12.67;;
57107;SDS011;42987;52.916;6.542;2023-01-28T02:49:17;15.07;;;13.60;;
57107;SDS011;42987;52.916;6.542;2023-01-28T02:54:27;14.03;;;12.83;;
57107;SDS011;42987;52.916;6.542;2023-01-28T02:57:45;26.00;;;23.33;;
57107;SDS011;42987;52.916;6.542;2023-01-28T03:00:24;15.80;;;14.40;;
57107;SDS011;42987;52.916;6.542;2023-01-28T03:05:54;14.20;;;12.80;;
57107;SDS011;42987;52.916;6.542;2023-01-28T03:11:23;14.10;;;12.90;;
57107;SDS011;42987;52.916;6.542;2023-01-28T03:14:10;12.90;;;11.80;;
57107;SDS011;42987;52.916;6.542;2023-01-28T03:16:55;13.07;;;11.97;;
57107;SDS011;42987;52.916;6.542;2023-01-28T03:19:42;13.57;;;12.37;;
57107;SDS011;42987;52.916;6.542;2023-01-28T03:22:27;13.47;;;12.27;;
57107;SDS011;42987;52.916;6.542;2023-01-28T03:25:14;13.63;;;12.43;;
57107;SDS011;42987;52.916;6.542;2023-01-28T03:28:01;13.40;;;12.20;;
57107;SDS011;42987;52.916;6.542;2023-01-28T03:30:50;13.53;;;12.33;;
57107;SDS011;42987;52.916;6.542;2023-01-28T03:33:42;13.07;;;11.97;;
57107;SDS011;42987;52.916;6.542;2023-01-28T03:36:27;12.60;;;11.60;;
57107;SDS011;42987;52.916;6.542;2023-01-28T03:39:12;13.27;;;12.10;;
57107;SDS011;42987;52.916;6.542;2023-01-28T03:41:39;14.10;;;12.90;;
57107;SDS011;42987;52.916;6.542;2023-01-28T03:44:05;13.40;;;12.20;;
57107;SDS011;42987;52.916;6.542;2023-01-28T03:46:49;13.23;;;11.80;;
57107;SDS011;42987;52.916;6.542;2023-01-28T03:49:15;13.20;;;12.00;;
57107;SDS011;42987;52.916;6.542;2023-01-28T03:51:42;12.83;;;11.73;;
57107;SDS011;42987;52.916;6.542;2023-01-28T03:54:08;15.80;;;11.90;;
57107;SDS011;42987;52.916;6.542;2023-01-28T03:56:34;13.67;;;12.43;;
57107;SDS011;42987;52.916;6.542;2023-01-28T03:59:07;13.23;;;12.13;;
57107;SDS011;42987;52.916;6.542;2023-01-28T04:01:33;13.57;;;12.37;;
57107;SDS011;42987;52.916;6.542;2023-01-28T04:04:02;13.33;;;12.23;;
57107;SDS011;42987;52.916;6.542;2023-01-28T04:06:28;14.17;;;12.97;;
57107;SDS011;42987;52.916;6.542;2023-01-28T04:08:54;13.00;;;11.93;;
57107;SDS011;42987;52.916;6.542;2023-01-28T04:11:23;13.87;;;12.67;;
57107;SDS011;42987;52.916;6.542;2023-01-28T04:13:50;12.20;;;11.10;;
57107;SDS011;42987;52.916;6.542;2023-01-28T04:16:16;10.83;;;9.93;;
57107;SDS011;42987;52.916;6.542;2023-01-28T04:18:43;11.87;;;10.87;;
57107;SDS011;42987;52.916;6.542;2023-01-28T04:21:09;14.10;;;12.90;;
57107;SDS011;42987;52.916;6.542;2023-01-28T04:23:35;14.47;;;13.23;;
57107;SDS011;42987;52.916;6.542;2023-01-28T04:26:01;14.33;;;13.13;;
57107;SDS011;42987;52.916;6.542;2023-01-28T04:28:28;15.50;;;13.60;;
57107;SDS011;42987;52.916;6.542;2023-01-28T04:30:54;14.43;;;13.13;;
57107;SDS011;42987;52.916;6.542;2023-01-28T04:33:20;14.50;;;13.20;;
57107;SDS011;42987;52.916;6.542;2023-01-28T04:35:47;14.40;;;13.20;;
57107;SDS011;42987;52.916;6.542;2023-01-28T04:38:12;15.37;;;14.07;;
57107;SDS011;42987;52.916;6.542;2023-01-28T04:40:38;15.20;;;13.90;;
57107;SDS011;42987;52.916;6.542;2023-01-28T04:43:04;15.73;;;14.40;;
57107;SDS011;42987;52.916;6.542;2023-01-28T04:45:30;15.17;;;13.77;;
57107;SDS011;42987;52.916;6.542;2023-01-28T04:47:56;15.93;;;14.50;;
57107;SDS011;42987;52.916;6.542;2023-01-28T04:50:22;14.50;;;13.10;;
57107;SDS011;42987;52.916;6.542;2023-01-28T04:52:48;14.27;;;12.97;;
57107;SDS011;42987;52.916;6.542;2023-01-28T04:55:13;14.73;;;13.43;;
57107;SDS011;42987;52.916;6.542;2023-01-28T04:57:39;14.55;;;13.15;;
57107;SDS011;42987;52.916;6.542;2023-01-28T05:00:05;15.53;;;14.13;;
57107;SDS011;42987;52.916;6.542;2023-01-28T05:02:31;15.20;;;13.90;;
57107;SDS011;42987;52.916;6.542;2023-01-28T05:04:57;15.70;;;14.30;;
57107;SDS011;42987;52.916;6.542;2023-01-28T05:07:25;16.25;;;14.80;;
57107;SDS011;42987;52.916;6.542;2023-01-28T05:09:51;15.27;;;13.85;;
57107;SDS011;42987;52.916;6.542;2023-01-28T05:12:17;14.88;;;13.68;;
57107;SDS011;42987;52.916;6.542;2023-01-28T05:14:44;15.70;;;14.40;;
57107;SDS011;42987;52.916;6.542;2023-01-28T05:17:10;14.33;;;13.03;;
57107;SDS011;42987;52.916;6.542;2023-01-28T05:19:36;14.57;;;13.27;;
57107;SDS011;42987;52.916;6.542;2023-01-28T05:22:05;15.00;;;13.63;;
57107;SDS011;42987;52.916;6.542;2023-01-28T05:24:30;16.47;;;14.97;;
57107;SDS011;42987;52.916;6.542;2023-01-28T05:26:56;16.70;;;15.23;;
57107;SDS011;42987;52.916;6.542;2023-01-28T05:29:22;17.10;;;15.60;;
57107;SDS011;42987;52.916;6.542;2023-01-28T05:31:48;17.73;;;16.13;;
57107;SDS011;42987;52.916;6.542;2023-01-28T05:34:13;17.47;;;15.97;;
57107;SDS011;42987;52.916;6.542;2023-01-28T05:36:39;16.47;;;15.03;;
57107;SDS011;42987;52.916;6.542;2023-01-28T05:39:05;15.17;;;13.87;;
57107;SDS011;42987;52.916;6.542;2023-01-28T05:41:32;15.00;;;13.70;;
57107;SDS011;42987;52.916;6.542;2023-01-28T05:43:58;15.20;;;13.83;;
57107;SDS011;42987;52.916;6.542;2023-01-28T05:46:24;15.97;;;14.57;;
57107;SDS011;42987;52.916;6.542;2023-01-28T05:48:50;16.33;;;14.87;;
57107;SDS011;42987;52.916;6.542;2023-01-28T05:51:15;15.95;;;14.45;;
57107;SDS011;42987;52.916;6.542;2023-01-28T05:53:41;15.60;;;14.20;;
57107;SDS011;42987;52.916;6.542;2023-01-28T05:56:07;17.83;;;16.33;;
57107;SDS011;42987;52.916;6.542;2023-01-28T05:58:33;16.70;;;15.30;;
57107;SDS011;42987;52.916;6.542;2023-01-28T06:00:59;16.40;;;15.00;;
57107;SDS011;42987;52.916;6.542;2023-01-28T06:03:25;16.73;;;15.33;;
57107;SDS011;42987;52.916;6.542;2023-01-28T06:05:50;19.13;;;17.43;;
57107;SDS011;42987;52.916;6.542;2023-01-28T06:08:16;17.17;;;15.67;;
57107;SDS011;42987;52.916;6.542;2023-01-28T06:10:45;19.53;;;17.63;;
57107;SDS011;42987;52.916;6.542;2023-01-28T06:13:11;18.93;;;17.33;;
57107;SDS011;42987;52.916;6.542;2023-01-28T06:15:37;20.97;;;19.17;;
57107;SDS011;42987;52.916;6.542;2023-01-28T06:18:03;20.67;;;18.80;;
57107;SDS011;42987;52.916;6.542;2023-01-28T06:20:29;21.00;;;19.20;;
57107;SDS011;42987;52.916;6.542;2023-01-28T06:22:54;23.23;;;21.23;;
57107;SDS011;42987;52.916;6.542;2023-01-28T06:25:20;21.87;;;19.97;;
57107;SDS011;42987;52.916;6.542;2023-01-28T06:27:46;22.20;;;20.23;;
57107;SDS011;42987;52.916;6.542;2023-01-28T06:30:11;20.77;;;18.97;;
57107;SDS011;42987;52.916;6.542;2023-01-28T06:32:37;21.07;;;19.17;;
57107;SDS011;42987;52.916;6.542;2023-01-28T06:35:03;21.70;;;19.83;;
57107;SDS011;42987;52.916;6.542;2023-01-28T06:37:33;21.43;;;19.63;;
57107;SDS011;42987;52.916;6.542;2023-01-28T06:39:59;20.87;;;19.03;;
57107;SDS011;42987;52.916;6.542;2023-01-28T06:42:25;20.13;;;18.43;;
57107;SDS011;42987;52.916;6.542;2023-01-28T06:44:54;20.37;;;18.67;;
57107;SDS011;42987;52.916;6.542;2023-01-28T06:47:19;21.07;;;19.10;;
57107;SDS011;42987;52.916;6.542;2023-01-28T06:49:45;21.07;;;19.13;;
57107;SDS011;42987;52.916;6.542;2023-01-28T06:52:11;22.13;;;20.23;;
57107;SDS011;42987;52.916;6.542;2023-01-28T06:54:36;20.63;;;18.83;;
57107;SDS011;42987;52.916;6.542;2023-01-28T06:57:02;20.73;;;18.93;;
57107;SDS011;42987;52.916;6.542;2023-01-28T06:59:28;20.83;;;18.90;;
57107;SDS011;42987;52.916;6.542;2023-01-28T07:01:54;22.03;;;20.13;;
57107;SDS011;42987;52.916;6.542;2023-01-28T07:04:20;20.27;;;18.50;;
57107;SDS011;42987;52.916;6.542;2023-01-28T07:06:45;21.73;;;19.83;;
57107;SDS011;42987;52.916;6.542;2023-01-28T07:09:11;22.07;;;20.17;;
57107;SDS011;42987;52.916;6.542;2023-01-28T07:11:37;22.57;;;20.57;;
57107;SDS011;42987;52.916;6.542;2023-01-28T07:14:03;22.67;;;20.67;;
57107;SDS011;42987;52.916;6.542;2023-01-28T07:16:29;20.97;;;19.17;;
57107;SDS011;42987;52.916;6.542;2023-01-28T07:18:55;21.30;;;19.43;;
57107;SDS011;42987;52.916;6.542;2023-01-28T07:21:21;20.00;;;18.27;;
57107;SDS011;42987;52.916;6.542;2023-01-28T07:23:47;20.40;;;18.53;;
57107;SDS011;42987;52.916;6.542;2023-01-28T07:26:12;20.83;;;18.80;;
57107;SDS011;42987;52.916;6.542;2023-01-28T07:28:39;21.10;;;19.13;;
57107;SDS011;42987;52.916;6.542;2023-01-28T07:31:05;21.77;;;19.70;;
57107;SDS011;42987;52.916;6.542;2023-01-28T07:33:31;20.50;;;18.67;;
57107;SDS011;42987;52.916;6.542;2023-01-28T07:35:56;20.27;;;18.33;;
57107;SDS011;42987;52.916;6.542;2023-01-28T07:38:22;20.93;;;19.07;;
57107;SDS011;42987;52.916;6.542;2023-01-28T07:40:48;20.67;;;18.83;;
57107;SDS011;42987;52.916;6.542;2023-01-28T07:43:14;20.37;;;18.57;;
57107;SDS011;42987;52.916;6.542;2023-01-28T07:45:40;21.63;;;19.63;;
57107;SDS011;42987;52.916;6.542;2023-01-28T07:48:06;19.87;;;18.17;;
57107;SDS011;42987;52.916;6.542;2023-01-28T07:50:35;21.03;;;19.13;;
57107;SDS011;42987;52.916;6.542;2023-01-28T07:53:02;20.60;;;18.70;;
57107;SDS011;42987;52.916;6.542;2023-01-28T07:55:32;22.10;;;20.10;;
57107;SDS011;42987;52.916;6.542;2023-01-28T07:58:00;20.47;;;18.57;;
57107;SDS011;42987;52.916;6.542;2023-01-28T08:00:27;20.13;;;18.33;;
57107;SDS011;42987;52.916;6.542;2023-01-28T08:02:55;19.57;;;17.87;;
57107;SDS011;42987;52.916;6.542;2023-01-28T08:05:22;20.83;;;18.93;;
57107;SDS011;42987;52.916;6.542;2023-01-28T08:07:48;22.10;;;20.00;;
57107;SDS011;42987;52.916;6.542;2023-01-28T08:10:15;21.33;;;19.40;;
57107;SDS011;42987;52.916;6.542;2023-01-28T08:12:51;22.53;;;20.43;;
57107;SDS011;42987;52.916;6.542;2023-01-28T08:15:23;22.27;;;20.27;;
57107;SDS011;42987;52.916;6.542;2023-01-28T08:17:49;22.17;;;20.07;;
57107;SDS011;42987;52.916;6.542;2023-01-28T08:20:17;22.83;;;20.73;;
57107;SDS011;42987;52.916;6.542;2023-01-28T08:22:43;22.40;;;20.37;;
57107;SDS011;42987;52.916;6.542;2023-01-28T08:25:09;22.33;;;20.23;;
57107;SDS011;42987;52.916;6.542;2023-01-28T08:27:35;23.67;;;21.37;;
57107;SDS011;42987;52.916;6.542;2023-01-28T08:30:01;23.30;;;21.13;;
57107;SDS011;42987;52.916;6.542;2023-01-28T08:32:27;21.37;;;19.37;;
57107;SDS011;42987;52.916;6.542;2023-01-28T08:34:54;22.30;;;20.30;;
57107;SDS011;42987;52.916;6.542;2023-01-28T08:37:20;22.63;;;20.53;;
57107;SDS011;42987;52.916;6.542;2023-01-28T08:39:46;22.27;;;20.17;;
57107;SDS011;42987;52.916;6.542;2023-01-28T08:42:12;22.40;;;20.30;;
57107;SDS011;42987;52.916;6.542;2023-01-28T08:44:37;23.60;;;21.40;;
57107;SDS011;42987;52.916;6.542;2023-01-28T08:47:03;19.43;;;17.47;;
57107;SDS011;42987;52.916;6.542;2023-01-28T08:49:29;19.93;;;17.73;;
57107;SDS011;42987;52.916;6.542;2023-01-28T08:51:55;18.20;;;16.53;;
57107;SDS011;42987;52.916;6.542;2023-01-28T08:54:22;19.03;;;17.30;;
57107;SDS011;42987;52.916;6.542;2023-01-28T08:56:48;18.83;;;17.07;;
57107;SDS011;42987;52.916;6.542;2023-01-28T08:59:14;18.90;;;17.00;;
57107;SDS011;42987;52.916;6.542;2023-01-28T09:01:40;18.07;;;16.47;;
57107;SDS011;42987;52.916;6.542;2023-01-28T09:04:06;18.67;;;16.87;;
57107;SDS011;42987;52.916;6.542;2023-01-28T09:06:31;18.03;;;16.43;;
57107;SDS011;42987;52.916;6.542;2023-01-28T09:08:58;16.80;;;15.27;;
57107;SDS011;42987;52.916;6.542;2023-01-28T09:11:24;16.40;;;14.80;;
57107;SDS011;42987;52.916;6.542;2023-01-28T09:13:50;15.33;;;13.93;;
57107;SDS011;42987;52.916;6.542;2023-01-28T09:16:16;15.57;;;14.17;;
57107;SDS011;42987;52.916;6.542;2023-01-28T09:18:41;15.20;;;13.90;;
57107;SDS011;42987;52.916;6.542;2023-01-28T09:21:07;15.70;;;14.30;;
57107;SDS011;42987;52.916;6.542;2023-01-28T09:23:34;15.03;;;13.70;;
57107;SDS011;42987;52.916;6.542;2023-01-28T09:26:03;15.50;;;14.17;;
57107;SDS011;42987;52.916;6.542;2023-01-28T09:28:30;13.70;;;12.37;;
57107;SDS011;42987;52.916;6.542;2023-01-28T09:31:03;13.93;;;12.63;;
57107;SDS011;42987;52.916;6.542;2023-01-28T09:33:30;13.50;;;12.37;;
57107;SDS011;42987;52.916;6.542;2023-01-28T09:36:00;14.30;;;13.00;;
57107;SDS011;42987;52.916;6.542;2023-01-28T09:38:30;13.20;;;12.07;;
57107;SDS011;42987;52.916;6.542;2023-01-28T09:40:57;13.33;;;12.13;;
57107;SDS011;42987;52.916;6.542;2023-01-28T09:43:41;14.77;;;13.37;;
57107;SDS011;42987;52.916;6.542;2023-01-28T09:46:26;14.07;;;12.88;;
57107;SDS011;42987;52.916;6.542;2023-01-28T09:48:57;12.87;;;11.67;;
57107;SDS011;42987;52.916;6.542;2023-01-28T09:53:54;13.65;;;12.35;;
57107;SDS011;42987;52.916;6.542;2023-01-28T09:56:25;13.00;;;11.90;;
57107;SDS011;42987;52.916;6.542;2023-01-28T09:58:56;13.32;;;12.02;;
57107;SDS011;42987;52.916;6.542;2023-01-28T10:04:21;11.30;;;10.18;;
57107;SDS011;42987;52.916;6.542;2023-01-28T10:07:21;12.20;;;11.10;;
57107;SDS011;42987;52.916;6.542;2023-01-28T10:18:31;13.23;;;12.00;;
57107;SDS011;42987;52.916;6.542;2023-01-28T10:21:23;12.73;;;11.63;;
57107;SDS011;42987;52.916;6.542;2023-01-28T10:26:43;13.02;;;11.43;;
57107;SDS011;42987;52.916;6.542;2023-01-28T10:29:17;11.60;;;10.50;;
57107;SDS011;42987;52.916;6.542;2023-01-28T10:31:58;11.82;;;10.82;;
57107;SDS011;42987;52.916;6.542;2023-01-28T10:34:29;11.95;;;10.85;;
57107;SDS011;42987;52.916;6.542;2023-01-28T10:36:54;11.88;;;10.88;;
57107;SDS011;42987;52.916;6.542;2023-01-28T10:39:22;12.60;;;11.27;;
57107;SDS011;42987;52.916;6.542;2023-01-28T10:41:50;13.60;;;12.35;;
57107;SDS011;42987;52.916;6.542;2023-01-28T10:44:17;15.35;;;14.05;;
57107;SDS011;42987;52.916;6.542;2023-01-28T10:46:51;14.10;;;12.90;;
57107;SDS011;42987;52.916;6.542;2023-01-28T10:49:24;13.63;;;12.32;;
57107;SDS011;42987;52.916;6.542;2023-01-28T10:51:51;14.02;;;12.82;;
57107;SDS011;42987;52.916;6.542;2023-01-28T10:54:24;22.65;;;20.65;;
57107;SDS011;42987;52.916;6.542;2023-01-28T10:56:52;16.45;;;15.00;;
57107;SDS011;42987;52.916;6.542;2023-01-28T11:01:52;13.90;;;12.60;;
57107;SDS011;42987;52.916;6.542;2023-01-28T11:04:25;13.57;;;12.38;;
57107;SDS011;42987;52.916;6.542;2023-01-28T11:09:45;12.88;;;11.68;;
57107;SDS011;42987;52.916;6.542;2023-01-28T11:12:16;12.50;;;11.30;;
57107;SDS011;42987;52.916;6.542;2023-01-28T11:14:49;12.43;;;11.23;;
57107;SDS011;42987;52.916;6.542;2023-01-28T11:17:19;12.55;;;11.35;;
57107;SDS011;42987;52.916;6.542;2023-01-28T11:19:48;15.18;;;13.68;;
57107;SDS011;42987;52.916;6.542;2023-01-28T11:25:02;14.05;;;12.75;;
57107;SDS011;42987;52.916;6.542;2023-01-28T11:27:38;13.82;;;12.52;;
57107;SDS011;42987;52.916;6.542;2023-01-28T11:30:04;13.20;;;11.90;;
57107;SDS011;42987;52.916;6.542;2023-01-28T11:32:31;13.48;;;12.30;;
57107;SDS011;42987;52.916;6.542;2023-01-28T11:34:57;13.13;;;11.90;;
57107;SDS011;42987;52.916;6.542;2023-01-28T11:37:27;13.15;;;11.95;;
57107;SDS011;42987;52.916;6.542;2023-01-28T11:42:41;13.43;;;12.10;;
57107;SDS011;42987;52.916;6.542;2023-01-28T11:45:14;12.38;;;11.18;;
57107;SDS011;42987;52.916;6.542;2023-01-28T11:53:22;14.52;;;12.93;;
57107;SDS011;42987;52.916;6.542;2023-01-28T11:58:51;13.27;;;11.98;;
57107;SDS011;42987;52.916;6.542;2023-01-28T12:04:33;14.05;;;12.63;;
57107;SDS011;42987;52.916;6.542;2023-01-28T12:07:46;14.73;;;12.90;;
57107;SDS011;42987;52.916;6.542;2023-01-28T12:14:05;13.20;;;11.85;;
57107;SDS011;42987;52.916;6.542;2023-01-28T12:19:30;14.15;;;12.75;;
57107;SDS011;42987;52.916;6.542;2023-01-28T12:41:35;19.63;;;15.93;;
57107;SDS011;42987;52.916;6.542;2023-01-28T12:44:17;19.13;;;16.05;;
57107;SDS011;42987;52.916;6.542;2023-01-28T12:57:28;14.48;;;12.75;;
57107;SDS011;42987;52.916;6.542;2023-01-28T13:02:50;15.95;;;13.40;;
57107;SDS011;42987;52.916;6.542;2023-01-28T13:05:48;17.20;;;14.02;;
57107;SDS011;42987;52.916;6.542;2023-01-28T13:08:30;21.95;;;17.52;;
57107;SDS011;42987;52.916;6.542;2023-01-28T13:10:56;19.27;;;16.77;;
57107;SDS011;42987;52.916;6.542;2023-01-28T13:15:57;18.45;;;16.48;;
57107;SDS011;42987;52.916;6.542;2023-01-28T13:18:41;18.10;;;15.27;;
57107;SDS011;42987;52.916;6.542;2023-01-28T13:26:49;16.98;;;15.20;;
57107;SDS011;42987;52.916;6.542;2023-01-28T13:31:54;16.17;;;14.48;;
57107;SDS011;42987;52.916;6.542;2023-01-28T13:39:55;15.70;;;13.93;;
57107;SDS011;42987;52.916;6.542;2023-01-28T13:42:27;20.15;;;15.02;;
57107;SDS011;42987;52.916;6.542;2023-01-28T13:44:55;16.65;;;14.52;;
57107;SDS011;42987;52.916;6.542;2023-01-28T13:47:32;16.58;;;13.82;;
57107;SDS011;42987;52.916;6.542;2023-01-28T13:50:01;15.82;;;13.93;;
57107;SDS011;42987;52.916;6.542;2023-01-28T13:52:34;16.75;;;13.82;;
57107;SDS011;42987;52.916;6.542;2023-01-28T14:00:22;16.38;;;14.10;;
57107;SDS011;42987;52.916;6.542;2023-01-28T14:09:00;18.50;;;15.88;;
57107;SDS011;42987;52.916;6.542;2023-01-28T14:17:34;18.38;;;15.90;;
57107;SDS011;42987;52.916;6.542;2023-01-28T14:20:35;17.33;;;14.60;;
57107;SDS011;42987;52.916;6.542;2023-01-28T14:23:05;18.13;;;15.90;;
57107;SDS011;42987;52.916;6.542;2023-01-28T14:28:20;17.63;;;15.73;;
57107;SDS011;42987;52.916;6.542;2023-01-28T14:31:01;17.52;;;14.90;;
57107;SDS011;42987;52.916;6.542;2023-01-28T14:33:36;19.77;;;15.20;;
57107;SDS011;42987;52.916;6.542;2023-01-28T14:36:02;15.77;;;13.23;;
57107;SDS011;42987;52.916;6.542;2023-01-28T14:38:29;13.73;;;11.13;;
57107;SDS011;42987;52.916;6.542;2023-01-28T14:41:01;12.88;;;9.55;;
57107;SDS011;42987;52.916;6.542;2023-01-28T14:43:29;13.13;;;10.15;;
57107;SDS011;42987;52.916;6.542;2023-01-28T14:45:58;10.52;;;9.13;;
57107;SDS011;42987;52.916;6.542;2023-01-28T14:57:36;12.43;;;11.13;;
57107;SDS011;42987;52.916;6.542;2023-01-28T15:00:19;13.77;;;11.65;;
57107;SDS011;42987;52.916;6.542;2023-01-28T15:02:46;12.15;;;10.60;;
57107;SDS011;42987;52.916;6.542;2023-01-28T15:05:16;14.38;;;11.32;;
57107;SDS011;42987;52.916;6.542;2023-01-28T15:07:46;12.85;;;11.02;;
57107;SDS011;42987;52.916;6.542;2023-01-28T15:12:55;12.70;;;11.43;;
57107;SDS011;42987;52.916;6.542;2023-01-28T15:15:38;14.80;;;11.90;;
57107;SDS011;42987;52.916;6.542;2023-01-28T15:20:43;14.63;;;12.32;;
57107;SDS011;42987;52.916;6.542;2023-01-28T15:23:11;12.85;;;11.50;;
57107;SDS011;42987;52.916;6.542;2023-01-28T15:25:40;13.20;;;11.80;;
57107;SDS011;42987;52.916;6.542;2023-01-28T15:28:05;14.60;;;11.82;;
57107;SDS011;42987;52.916;6.542;2023-01-28T15:30:43;14.65;;;12.63;;
57107;SDS011;42987;52.916;6.542;2023-01-28T15:35:50;14.23;;;11.93;;
57107;SDS011;42987;52.916;6.542;2023-01-28T15:38:20;13.40;;;11.82;;
57107;SDS011;42987;52.916;6.542;2023-01-28T15:40:53;12.35;;;10.85;;
57107;SDS011;42987;52.916;6.542;2023-01-28T15:43:24;12.95;;;11.55;;
57107;SDS011;42987;52.916;6.542;2023-01-28T15:45:56;13.27;;;11.25;;
57107;SDS011;42987;52.916;6.542;2023-01-28T15:48:34;13.95;;;11.30;;
57107;SDS011;42987;52.916;6.542;2023-01-28T15:51:01;11.88;;;10.30;;
57107;SDS011;42987;52.916;6.542;2023-01-28T15:53:32;13.55;;;11.52;;
57107;SDS011;42987;52.916;6.542;2023-01-28T15:56:11;12.50;;;10.38;;
57107;SDS011;42987;52.916;6.542;2023-01-28T15:58:38;11.95;;;10.10;;
57107;SDS011;42987;52.916;6.542;2023-01-28T16:03:37;14.05;;;10.13;;
57107;SDS011;42987;52.916;6.542;2023-01-28T16:08:33;12.35;;;10.23;;
57107;SDS011;42987;52.916;6.542;2023-01-28T16:11:03;14.15;;;10.93;;
57107;SDS011;42987;52.916;6.542;2023-01-28T16:16:00;18.88;;;14.88;;
57107;SDS011;42987;52.916;6.542;2023-01-28T16:18:37;21.85;;;16.48;;
57107;SDS011;42987;52.916;6.542;2023-01-28T16:21:03;19.60;;;16.33;;
57107;SDS011;42987;52.916;6.542;2023-01-28T16:23:33;23.50;;;18.90;;
57107;SDS011;42987;52.916;6.542;2023-01-28T16:28:48;21.98;;;17.20;;
57107;SDS011;42987;52.916;6.542;2023-01-28T16:31:14;20.17;;;16.48;;
57107;SDS011;42987;52.916;6.542;2023-01-28T16:33:39;22.25;;;17.65;;
57107;SDS011;42987;52.916;6.542;2023-01-28T16:36:07;22.85;;;17.17;;
57107;SDS011;42987;52.916;6.542;2023-01-28T16:38:39;21.55;;;17.02;;
57107;SDS011;42987;52.916;6.542;2023-01-28T16:41:21;22.55;;;16.88;;
57107;SDS011;42987;52.916;6.542;2023-01-28T16:43:50;22.05;;;16.67;;
57107;SDS011;42987;52.916;6.542;2023-01-28T16:46:16;22.50;;;18.00;;
57107;SDS011;42987;52.916;6.542;2023-01-28T16:48:42;25.35;;;17.65;;
57107;SDS011;42987;52.916;6.542;2023-01-28T16:51:17;22.45;;;17.30;;
57107;SDS011;42987;52.916;6.542;2023-01-28T16:53:46;21.95;;;16.52;;
57107;SDS011;42987;52.916;6.542;2023-01-28T16:56:21;22.23;;;16.17;;
57107;SDS011;42987;52.916;6.542;2023-01-28T16:58:49;22.30;;;16.27;;
57107;SDS011;42987;52.916;6.542;2023-01-28T17:01:15;17.65;;;14.80;;
57107;SDS011;42987;52.916;6.542;2023-01-28T17:03:40;18.38;;;13.85;;
57107;SDS011;42987;52.916;6.542;2023-01-28T17:06:07;18.20;;;12.70;;
57107;SDS011;42987;52.916;6.542;2023-01-28T17:08:36;16.50;;;12.95;;
57107;SDS011;42987;52.916;6.542;2023-01-28T17:11:02;14.80;;;12.52;;
57107;SDS011;42987;52.916;6.542;2023-01-28T17:13:28;15.00;;;12.48;;
57107;SDS011;42987;52.916;6.542;2023-01-28T17:15:53;14.95;;;12.32;;